createdAt,value
2023-04-17T00:01:43.245Z,17.30
2023-04-17T00:06:46.527Z,17.50
2023-04-17T00:11:52.970Z,17.50
2023-04-17T00:16:56.668Z,17.50
2023-04-17T00:22:00.268Z,18.40
2023-04-17T00:27:03.501Z,18.30
2023-04-17T00:32:16.824Z,17.40
2023-04-17T00:37:20.256Z,18.60
2023-04-17T00:42:23.802Z,18.10
2023-04-17T00:47:27.766Z,17.40
2023-04-17T00:52:44.261Z,18.20
2023-04-17T00:57:50.778Z,18.80
2023-04-17T01:02:57.961Z,20.70
2023-04-17T01:08:03.772Z,18.70
2023-04-17T01:13:09.070Z,18.80
2023-04-17T01:18:12.997Z,19.10
2023-04-17T01:23:16.579Z,18.50
2023-04-17T01:28:20.172Z,19.30
2023-04-17T01:33:23.960Z,18.10
2023-04-17T01:38:27.389Z,17.90
2023-04-17T01:43:50.492Z,20.10
2023-04-17T01:48:54.527Z,18.70
2023-04-17T01:53:57.851Z,18.80
2023-04-17T01:59:01.566Z,20.50
2023-04-17T02:04:05.566Z,23.60
2023-04-17T02:09:09.825Z,23.70
2023-04-17T02:14:18.206Z,20.90
2023-04-17T02:19:25.116Z,21.10
2023-04-17T02:24:28.647Z,19.70
2023-04-17T02:29:41.812Z,20.10
2023-04-17T02:34:45.554Z,19.80
2023-04-17T02:39:49.807Z,18.50
2023-04-17T02:45:06.577Z,19.30
2023-04-17T02:50:11.228Z,19.00
2023-04-17T02:55:48.472Z,18.00
2023-04-17T03:01:01.554Z,17.10
2023-04-17T03:11:13.026Z,17.10
2023-04-17T03:16:16.995Z,18.10
2023-04-17T03:21:24.089Z,15.70
2023-04-17T03:26:27.930Z,17.80
2023-04-17T03:31:31.933Z,17.80
2023-04-17T03:36:36.446Z,17.00
2023-04-17T03:41:41.025Z,19.40
2023-04-17T03:46:46.550Z,19.40
2023-04-17T03:52:13.692Z,20.30
2023-04-17T03:57:20.706Z,19.20
2023-04-17T04:02:25.836Z,19.70
2023-04-17T04:07:30.790Z,19.60
2023-04-17T04:12:57.479Z,20.20
2023-04-17T04:18:24.436Z,20.90
2023-04-17T04:23:30.857Z,21.60
2023-04-17T04:28:34.471Z,19.30
2023-04-17T04:33:37.871Z,19.70
2023-04-17T04:38:45.743Z,21.60
2023-04-17T04:43:56.551Z,18.00
2023-04-17T04:49:00.556Z,19.20
2023-04-17T04:54:04.836Z,18.30
2023-04-17T04:59:10.299Z,18.90
2023-04-17T05:04:16.022Z,17.90
2023-04-17T05:09:51.350Z,17.90
2023-04-17T05:14:54.856Z,18.20
2023-04-17T05:19:59.177Z,18.40
2023-04-17T05:25:27.746Z,18.10
2023-04-17T05:30:35.252Z,18.40
2023-04-17T05:35:52.914Z,18.20
2023-04-17T05:41:01.809Z,17.70
2023-04-17T05:46:05.325Z,19.10
2023-04-17T05:51:09.331Z,53.40
2023-04-17T05:56:12.743Z,20.10
2023-04-17T06:01:18.271Z,17.40
2023-04-17T06:06:22.095Z,18.20
2023-04-17T06:11:25.781Z,17.30
2023-04-17T06:16:37.288Z,17.00
2023-04-17T06:21:40.997Z,16.90
2023-04-17T06:26:44.413Z,17.50
2023-04-17T06:31:47.793Z,17.40
2023-04-17T06:36:53.660Z,18.60
2023-04-17T06:42:17.410Z,19.40
2023-04-17T06:47:21.088Z,18.10
2023-04-17T06:52:27.182Z,18.90
2023-04-17T06:57:30.731Z,20.90
2023-04-17T07:02:34.327Z,18.90
2023-04-17T07:07:38.048Z,18.10
2023-04-17T07:12:43.971Z,26.10
2023-04-17T07:17:47.386Z,23.70
2023-04-17T07:22:51.181Z,25.50
2023-04-17T07:27:55.171Z,19.50
2023-04-17T07:32:58.862Z,20.00
2023-04-17T07:38:04.118Z,18.70
2023-04-17T07:43:07.434Z,18.40
2023-04-17T07:48:11.186Z,16.60
2023-04-17T07:53:14.777Z,16.90
2023-04-17T07:58:18.329Z,20.10
2023-04-17T08:03:31.931Z,17.00
2023-04-17T08:08:35.484Z,17.40
2023-04-17T08:13:38.770Z,16.00
2023-04-17T08:18:42.239Z,16.00
2023-04-17T08:23:45.784Z,15.70
2023-04-17T08:28:53.836Z,16.10
2023-04-17T08:34:06.528Z,15.40
2023-04-17T08:39:33.194Z,17.10
2023-04-17T08:44:39.777Z,18.60
2023-04-17T08:49:44.107Z,17.20
2023-04-17T08:54:50.981Z,15.60
2023-04-17T08:59:54.827Z,15.10
2023-04-17T09:05:09.797Z,15.40
2023-04-17T09:10:13.142Z,15.30
2023-04-17T09:15:17.246Z,15.60
2023-04-17T09:20:21.259Z,14.60
2023-04-17T09:25:28.344Z,15.60
2023-04-17T09:30:37.433Z,15.10
2023-04-17T09:35:41.046Z,14.90
2023-04-17T09:40:46.949Z,15.30
2023-04-17T09:45:52.503Z,15.80
2023-04-17T09:50:56.994Z,15.90
2023-04-17T09:56:01.755Z,15.20
2023-04-17T10:01:05.932Z,15.20
2023-04-17T10:06:09.730Z,14.40
2023-04-17T10:11:13.802Z,14.30
2023-04-17T10:16:17.223Z,15.00
2023-04-17T10:21:22.721Z,14.20
2023-04-17T10:26:26.049Z,13.30
2023-04-17T10:32:07.669Z,14.10
2023-04-17T10:37:15.562Z,13.70
2023-04-17T10:42:21.111Z,13.20
2023-04-17T10:47:32.229Z,12.60
2023-04-17T10:52:42.016Z,12.40
2023-04-17T10:58:13.204Z,12.60
2023-04-17T11:03:17.526Z,12.80
2023-04-17T11:08:22.541Z,12.20
2023-04-17T11:13:26.009Z,12.30
2023-04-17T11:18:29.709Z,11.70
2023-04-17T11:23:36.410Z,12.10
2023-04-17T11:28:39.834Z,11.50
2023-04-17T11:33:43.441Z,10.60
2023-04-17T11:38:48.588Z,11.50
2023-04-17T11:43:52.101Z,9.90
2023-04-17T11:48:55.408Z,9.80
2023-04-17T11:53:59.646Z,14.40
2023-04-17T11:59:05.133Z,9.90
2023-04-17T12:04:21.216Z,9.00
2023-04-17T12:09:28.273Z,8.70
2023-04-17T12:14:32.443Z,9.30
2023-04-17T12:19:35.862Z,9.00
2023-04-17T12:24:39.265Z,9.00
2023-04-17T12:29:44.726Z,9.30
2023-04-17T12:34:48.925Z,8.70
2023-04-17T12:39:52.297Z,8.20
2023-04-17T12:44:55.774Z,8.40
2023-04-17T12:49:59.365Z,8.00
2023-04-17T12:55:04.152Z,8.20
2023-04-17T13:00:10.959Z,8.20
2023-04-17T13:05:14.240Z,8.00
2023-04-17T13:10:20.510Z,8.20
2023-04-17T13:15:27.005Z,7.90
2023-04-17T13:20:30.388Z,8.90
2023-04-17T13:25:33.850Z,8.20
2023-04-17T13:30:37.835Z,8.10
2023-04-17T13:35:41.573Z,8.40
2023-04-17T13:40:45.122Z,7.30
2023-04-17T13:45:49.835Z,6.40
2023-04-17T13:50:54.598Z,5.90
2023-04-17T13:55:57.806Z,5.80
2023-04-17T14:01:01.078Z,6.30
2023-04-17T14:06:07.238Z,6.20
2023-04-17T14:11:11.098Z,6.30
2023-04-17T14:16:19.181Z,6.00
2023-04-17T14:21:22.695Z,5.80
2023-04-17T14:26:28.715Z,6.10
2023-04-17T14:31:32.269Z,7.20
2023-04-17T14:36:35.980Z,6.40
2023-04-17T14:41:39.570Z,6.00
2023-04-17T14:46:43.434Z,6.30
2023-04-17T14:51:46.951Z,6.40
2023-04-17T14:56:50.736Z,6.50
2023-04-17T15:01:54.457Z,6.50
2023-04-17T15:07:10.153Z,6.50
2023-04-17T15:12:13.644Z,6.10
2023-04-17T15:17:17.299Z,6.70
2023-04-17T15:22:20.766Z,6.60
2023-04-17T15:27:24.677Z,7.00
2023-04-17T15:32:28.062Z,6.90
2023-04-17T15:37:31.301Z,7.70
2023-04-17T15:42:36.947Z,6.90
2023-04-17T15:47:40.572Z,6.80
2023-04-17T15:52:44.640Z,6.40
2023-04-17T15:57:48.042Z,6.50
2023-04-17T16:02:52.148Z,6.60
2023-04-17T16:07:55.941Z,7.10
2023-04-17T16:12:59.183Z,7.90
2023-04-17T16:18:02.458Z,8.30
2023-04-17T16:23:05.916Z,22.30
2023-04-17T16:28:09.249Z,13.90
2023-04-17T16:33:12.745Z,10.20
2023-04-17T16:38:16.265Z,7.60
2023-04-17T16:43:19.817Z,7.00
2023-04-17T16:48:23.298Z,7.30
2023-04-17T16:53:26.669Z,7.70
2023-04-17T16:58:30.079Z,7.50
2023-04-17T17:03:33.953Z,6.80
2023-04-17T17:08:37.164Z,6.50
2023-04-17T17:13:50.394Z,7.10
2023-04-17T17:18:54.541Z,6.60
2023-04-17T17:23:58.988Z,6.40
2023-04-17T17:29:02.597Z,6.20
2023-04-17T17:34:22.508Z,6.50
2023-04-17T17:39:29.265Z,6.10
2023-04-17T17:44:32.855Z,7.00
2023-04-17T17:49:36.193Z,6.30
2023-04-17T17:54:39.889Z,6.80
2023-04-17T17:59:44.047Z,6.60
2023-04-17T18:04:47.531Z,6.70
2023-04-17T18:09:56.709Z,6.50
2023-04-17T18:15:00.191Z,6.90
2023-04-17T18:20:03.849Z,6.10
2023-04-17T18:25:27.748Z,6.60
2023-04-17T18:30:31.673Z,6.90
2023-04-17T18:35:35.596Z,6.50
2023-04-17T18:40:39.378Z,6.60
2023-04-17T18:45:42.981Z,7.30
2023-04-17T18:50:46.833Z,8.00
2023-04-17T18:55:59.444Z,7.40
2023-04-17T19:06:12.629Z,8.80
2023-04-17T19:11:16.211Z,8.20
2023-04-17T19:16:19.534Z,8.00
2023-04-17T19:21:23.223Z,7.30
2023-04-17T19:26:26.907Z,7.60
2023-04-17T19:31:31.882Z,7.50
2023-04-17T19:36:36.027Z,7.50
2023-04-17T19:41:40.236Z,7.60
2023-04-17T19:46:43.482Z,7.40
2023-04-17T19:51:46.615Z,8.00
2023-04-17T19:57:10.380Z,7.30
2023-04-17T20:02:14.078Z,8.20
2023-04-17T20:13:13.853Z,9.40
2023-04-17T20:18:17.920Z,9.60
2023-04-17T20:23:21.886Z,9.20
2023-04-17T20:28:25.103Z,9.00
2023-04-17T20:34:02.864Z,9.00
2023-04-17T20:39:12.942Z,9.50
2023-04-17T20:44:16.625Z,9.60
2023-04-17T20:49:20.141Z,9.90
2023-04-17T20:54:26.390Z,10.10
2023-04-17T20:59:37.371Z,10.20
2023-04-17T21:04:40.928Z,10.40
2023-04-17T21:09:44.172Z,11.00
2023-04-17T21:14:47.431Z,10.60
2023-04-17T21:20:21.764Z,11.10
2023-04-17T21:26:36.740Z,12.00
2023-04-17T21:32:07.235Z,11.70
2023-04-17T21:37:36.203Z,11.00
2023-04-17T21:42:42.861Z,11.40
2023-04-17T21:47:46.325Z,11.10
2023-04-17T21:52:50.178Z,10.90
2023-04-17T21:57:53.484Z,11.80
2023-04-17T22:02:56.946Z,11.80
2023-04-17T22:08:01.532Z,11.80
2023-04-17T22:13:05.544Z,13.30
2023-04-17T22:18:09.035Z,13.50
2023-04-17T22:23:12.521Z,14.20
2023-04-17T22:28:16.507Z,14.60
2023-04-17T22:33:39.920Z,14.80
2023-04-17T22:39:03.816Z,14.00
2023-04-17T22:44:07.326Z,14.80
2023-04-17T22:49:10.613Z,14.70
2023-04-17T22:54:22.149Z,15.70
2023-04-17T22:59:26.966Z,15.80
2023-04-17T23:04:53.265Z,15.10
2023-04-17T23:10:38.852Z,15.10
2023-04-17T23:15:42.850Z,16.70
2023-04-17T23:21:06.628Z,16.80
2023-04-17T23:26:20.131Z,17.60
2023-04-17T23:31:23.656Z,17.10
2023-04-17T23:36:27.088Z,17.70
2023-04-17T23:42:11.085Z,16.80
2023-04-17T23:47:14.442Z,17.70
2023-04-17T23:52:19.471Z,18.10
2023-04-17T23:57:22.832Z,18.00
